createdAt,value
2024-03-06T00:03:58.906Z,99458.75
2024-03-06T00:08:50.718Z,99469.72
2024-03-06T00:13:42.708Z,99461.84
2024-03-06T00:18:34.653Z,99458.50
2024-03-06T00:23:26.229Z,99463.44
2024-03-06T00:28:17.934Z,99464.00
2024-03-06T00:33:09.716Z,99457.72
2024-03-06T00:38:04.554Z,99462.47
2024-03-06T00:42:56.188Z,99467.59
2024-03-06T00:47:47.962Z,99467.13
2024-03-06T00:52:39.649Z,99468.19
2024-03-06T00:57:31.269Z,99466.06
2024-03-06T01:02:24.307Z,99476.16
2024-03-06T01:07:18.131Z,99475.72
2024-03-06T01:12:09.754Z,99467.41
2024-03-06T01:17:01.645Z,99469.22
2024-03-06T01:21:53.341Z,99468.78
2024-03-06T01:26:44.966Z,99457.78
2024-03-06T01:31:36.611Z,99461.72
2024-03-06T01:36:28.274Z,99467.97
2024-03-06T01:41:19.930Z,99467.31
2024-03-06T01:46:11.603Z,99477.22
2024-03-06T01:51:06.091Z,99481.16
2024-03-06T01:55:58.080Z,99480.03
2024-03-06T02:00:51.408Z,99478.09
2024-03-06T02:05:44.379Z,99479.88
2024-03-06T02:10:36.158Z,99488.31
2024-03-06T02:15:27.872Z,99481.66
2024-03-06T02:20:24.778Z,99483.88
2024-03-06T02:25:16.831Z,99480.94
2024-03-06T02:30:08.916Z,99483.97
2024-03-06T02:35:03.207Z,99478.16
2024-03-06T02:39:55.206Z,99485.56
2024-03-06T02:44:46.838Z,99477.69
2024-03-06T02:49:38.699Z,99486.97
2024-03-06T02:54:30.402Z,99478.22
2024-03-06T02:59:22.202Z,99473.03
2024-03-06T03:04:14.110Z,99470.53
2024-03-06T03:09:05.927Z,99467.88
2024-03-06T03:13:58.178Z,99464.91
2024-03-06T03:18:49.909Z,99468.59
2024-03-06T03:23:41.777Z,99466.47
2024-03-06T03:28:33.705Z,99472.22
2024-03-06T03:33:25.802Z,99472.78
2024-03-06T03:38:18.350Z,99463.44
2024-03-06T03:43:10.067Z,99471.69
2024-03-06T03:48:03.893Z,99473.69
2024-03-06T03:52:55.544Z,99469.34
2024-03-06T03:57:47.184Z,99469.53
2024-03-06T04:02:39.449Z,99465.72
2024-03-06T04:07:31.283Z,99464.59
2024-03-06T04:12:22.915Z,99473.88
2024-03-06T04:17:14.727Z,99466.56
2024-03-06T04:22:06.682Z,99464.25
2024-03-06T04:26:58.259Z,99472.66
2024-03-06T04:31:49.872Z,99485.78
2024-03-06T04:36:41.587Z,99476.44
2024-03-06T04:41:33.233Z,99474.47
2024-03-06T04:46:24.860Z,99481.97
2024-03-06T04:51:16.616Z,99492.34
2024-03-06T04:56:08.759Z,99484.31
2024-03-06T05:01:00.494Z,99498.38
2024-03-06T06:02:41.249Z,99549.53
2024-03-06T06:07:32.857Z,99555.78
2024-03-06T06:12:24.469Z,99571.75
2024-03-06T06:17:16.987Z,99561.22
2024-03-06T06:22:08.730Z,99572.47
2024-03-06T06:27:00.335Z,99560.25
2024-03-06T06:31:51.962Z,99575.13
2024-03-06T06:36:47.557Z,99583.53
2024-03-06T06:41:39.214Z,99572.34
2024-03-06T06:46:30.859Z,99587.94
2024-03-06T06:51:24.265Z,99577.38
2024-03-06T06:56:16.101Z,99591.22
2024-03-06T07:01:07.711Z,99580.31
2024-03-06T07:05:59.569Z,99584.34
2024-03-06T07:10:52.375Z,99595.28
2024-03-06T07:15:44.054Z,99588.16
2024-03-06T07:20:35.857Z,99592.88
2024-03-06T07:25:27.477Z,99599.41
2024-03-06T07:30:19.547Z,99606.75
2024-03-06T07:35:11.669Z,99606.41
2024-03-06T07:40:04.481Z,99608.56
2024-03-06T07:44:56.088Z,99605.38
2024-03-06T07:49:48.032Z,99610.72
2024-03-06T07:54:40.784Z,99615.09
2024-03-06T07:59:33.447Z,99611.25
2024-03-06T08:04:26.078Z,99618.28
2024-03-06T08:09:18.161Z,99610.91
2024-03-06T08:14:09.806Z,99618.25
2024-03-06T08:19:01.762Z,99613.53
2024-03-06T08:23:53.363Z,99626.06
2024-03-06T08:28:45.058Z,99620.88
2024-03-06T08:33:36.800Z,99614.81
2024-03-06T08:38:28.638Z,99609.59
2024-03-06T08:43:21.186Z,99609.72
2024-03-06T08:48:13.076Z,99632.50
2024-03-06T08:53:04.974Z,99620.41
2024-03-06T08:57:56.554Z,99637.78
2024-03-06T09:02:48.353Z,99635.69
2024-03-06T09:07:44.011Z,99636.69
2024-03-06T09:12:35.706Z,99651.06
2024-03-06T09:17:27.966Z,99639.25
2024-03-06T09:22:19.646Z,99647.91
2024-03-06T09:27:11.269Z,99657.38
2024-03-06T09:32:03.300Z,99654.94
2024-03-06T09:36:54.958Z,99651.00
2024-03-06T09:41:47.383Z,99660.66
2024-03-06T09:46:40.274Z,99666.91
2024-03-06T09:51:32.919Z,99662.47
2024-03-06T09:56:24.568Z,99674.28
2024-03-06T10:01:18.088Z,99680.03
2024-03-06T10:06:12.047Z,99667.53
2024-03-06T10:11:05.902Z,99674.38
2024-03-06T10:15:59.346Z,99679.47
2024-03-06T10:20:51.199Z,99672.53
2024-03-06T10:25:44.724Z,99677.22
2024-03-06T10:30:38.982Z,99677.16
2024-03-06T10:35:30.749Z,99677.03
2024-03-06T10:40:24.147Z,99680.69
2024-03-06T10:45:19.177Z,99678.44
2024-03-06T10:50:13.703Z,99679.84
2024-03-06T10:55:05.882Z,99688.13
2024-03-06T11:00:03.395Z,99672.09
2024-03-06T11:04:57.546Z,99681.22
2024-03-06T11:09:49.932Z,99697.81
2024-03-06T11:14:41.859Z,99694.00
2024-03-06T11:19:54.372Z,99691.91
2024-03-06T11:24:45.997Z,99694.81
2024-03-06T11:30:05.348Z,99701.50
2024-03-06T11:34:56.987Z,99693.84
2024-03-06T11:39:49.180Z,99698.94
2024-03-06T11:44:58.481Z,99691.66
2024-03-06T11:49:51.231Z,99700.97
2024-03-06T11:54:42.818Z,99685.50
2024-03-06T11:59:36.856Z,99694.38
2024-03-06T12:04:29.144Z,99700.44
2024-03-06T12:09:20.805Z,99701.81
2024-03-06T12:14:20.121Z,99711.38
2024-03-06T12:19:11.848Z,99711.38
2024-03-06T12:24:07.809Z,99705.59
2024-03-06T12:29:10.981Z,99722.03
2024-03-06T12:34:06.162Z,99726.00
2024-03-06T12:39:00.854Z,99720.19
2024-03-06T12:43:52.512Z,99711.84
2024-03-06T12:48:44.366Z,99701.44
2024-03-06T12:53:36.628Z,99706.63
2024-03-06T12:58:28.505Z,99712.84
2024-03-06T13:03:20.151Z,99711.81
2024-03-06T13:08:15.279Z,99709.34
2024-03-06T13:13:07.928Z,99715.38
2024-03-06T13:17:59.673Z,99713.72
2024-03-06T13:22:51.292Z,99710.81
2024-03-06T13:27:43.035Z,99727.28
2024-03-06T13:32:34.873Z,99723.53
2024-03-06T13:37:26.676Z,99718.09
2024-03-06T13:42:18.459Z,99724.94
2024-03-06T13:47:19.714Z,99731.81
2024-03-06T13:52:11.914Z,99722.88
2024-03-06T13:57:04.246Z,99728.47
2024-03-06T14:01:55.875Z,99720.19
2024-03-06T14:06:47.551Z,99731.84
2024-03-06T14:11:39.530Z,99722.47
2024-03-06T14:16:32.323Z,99722.69
2024-03-06T14:21:24.020Z,99722.03
2024-03-06T14:26:16.679Z,99722.88
2024-03-06T14:31:09.041Z,99723.31
2024-03-06T14:36:01.044Z,99718.91
2024-03-06T14:40:52.700Z,99731.19
2024-03-06T14:45:46.819Z,99722.25
2024-03-06T14:50:38.448Z,99720.16
2024-03-06T14:55:30.149Z,99719.38
2024-03-06T15:00:22.548Z,99729.13
2024-03-06T15:05:14.435Z,99734.34
2024-03-06T15:10:07.518Z,99736.81
2024-03-06T15:14:59.552Z,99740.78
2024-03-06T15:19:51.322Z,99737.66
2024-03-06T15:24:45.517Z,99734.13
2024-03-06T15:29:37.179Z,99737.25
2024-03-06T15:34:28.874Z,99731.22
2024-03-06T15:39:22.569Z,99740.38
2024-03-06T15:44:14.458Z,99737.66
2024-03-06T15:49:22.033Z,99732.44
2024-03-06T15:54:13.821Z,99731.66
2024-03-06T15:59:05.473Z,99742.03
2024-03-06T16:03:57.112Z,99735.97
2024-03-06T16:08:48.829Z,99736.41
2024-03-06T16:13:40.808Z,99739.72
2024-03-06T16:18:32.494Z,99740.75
2024-03-06T16:23:24.090Z,99743.41
2024-03-06T16:28:15.736Z,99744.63
2024-03-06T16:33:08.589Z,99738.81
2024-03-06T16:38:00.330Z,99734.81
2024-03-06T16:42:51.909Z,99740.91
2024-03-06T16:47:43.668Z,99735.41
2024-03-06T16:52:35.320Z,99735.41
2024-03-06T16:57:26.967Z,99734.78
2024-03-06T17:02:18.642Z,99744.72
2024-03-06T17:07:13.448Z,99744.50
2024-03-06T17:12:08.853Z,99753.00
2024-03-06T17:17:02.105Z,99750.06
2024-03-06T17:21:53.764Z,99748.56
2024-03-06T17:26:46.525Z,99759.75
2024-03-06T17:31:38.529Z,99750.34
2024-03-06T17:36:31.901Z,99764.44
2024-03-06T17:41:25.475Z,99766.91
2024-03-06T17:46:17.515Z,99764.59
2024-03-06T17:51:09.256Z,99769.91
2024-03-06T17:56:00.967Z,99770.06
2024-03-06T18:00:52.722Z,99774.38
2024-03-06T18:05:44.353Z,99772.66
2024-03-06T18:10:36.249Z,99783.41
2024-03-06T18:15:27.910Z,99786.25
2024-03-06T18:20:19.650Z,99792.25
2024-03-06T18:25:11.247Z,99800.25
2024-03-06T18:30:04.297Z,99801.22
2024-03-06T18:34:58.891Z,99807.38
2024-03-06T18:39:51.510Z,99818.28
2024-03-06T18:44:43.421Z,99824.66
2024-03-06T18:49:35.044Z,99818.72
2024-03-06T18:54:27.598Z,99829.88
2024-03-06T18:59:19.384Z,99824.59
2024-03-06T19:04:11.291Z,99832.25
2024-03-06T19:09:06.610Z,99827.78
2024-03-06T19:13:58.397Z,99826.69
2024-03-06T19:18:50.002Z,99820.53
2024-03-06T19:23:41.708Z,99823.63
2024-03-06T19:28:33.598Z,99827.06
2024-03-06T19:33:25.325Z,99825.59
2024-03-06T19:38:19.510Z,99832.38
2024-03-06T19:43:13.121Z,99834.41
2024-03-06T19:48:05.321Z,99834.13
2024-03-06T19:52:57.049Z,99831.81
2024-03-06T19:57:49.935Z,99841.28
2024-03-06T20:02:41.649Z,99842.50
2024-03-06T20:07:34.133Z,99853.44
2024-03-06T20:12:25.968Z,99860.16
2024-03-06T20:17:18.105Z,99863.03
2024-03-06T20:22:09.816Z,99863.41
2024-03-06T20:27:04.019Z,99869.34
2024-03-06T20:31:56.258Z,99866.00
2024-03-06T20:36:47.995Z,99862.00
2024-03-06T20:41:41.211Z,99872.13
2024-03-06T20:46:33.088Z,99861.53
2024-03-06T20:51:24.762Z,99864.41
2024-03-06T20:56:16.520Z,99854.84
2024-03-06T21:01:09.393Z,99875.56
2024-03-06T21:06:01.022Z,99870.72
2024-03-06T21:10:52.786Z,99871.25
2024-03-06T21:15:44.420Z,99879.50
2024-03-06T21:20:36.156Z,99880.72
2024-03-06T21:25:27.970Z,99877.56
2024-03-06T21:30:19.816Z,99868.84
2024-03-06T21:35:11.656Z,99867.34
2024-03-06T21:40:09.624Z,99880.13
2024-03-06T21:45:01.325Z,99879.47
2024-03-06T21:49:53.080Z,99875.31
2024-03-06T21:54:45.072Z,99877.31
2024-03-06T21:59:36.842Z,99884.91
2024-03-06T22:04:28.411Z,99887.78
2024-03-06T22:09:20.023Z,99893.34
2024-03-06T22:14:12.888Z,99886.47
2024-03-06T22:19:05.729Z,99888.31
2024-03-06T22:23:58.251Z,99889.31
2024-03-06T22:28:49.948Z,99874.59
2024-03-06T22:33:42.921Z,99896.28
2024-03-06T22:38:34.563Z,99892.09
2024-03-06T22:43:26.176Z,99892.44
2024-03-06T22:48:17.874Z,99897.53
2024-03-06T22:53:09.779Z,99884.44
2024-03-06T22:58:01.861Z,99885.16
2024-03-06T23:02:53.496Z,99904.97
2024-03-06T23:07:45.149Z,99893.94
2024-03-06T23:12:37.070Z,99896.78
2024-03-06T23:17:29.188Z,99894.63
2024-03-06T23:22:20.861Z,99888.09
2024-03-06T23:27:12.533Z,99902.41
2024-03-06T23:32:04.480Z,99900.06
2024-03-06T23:36:56.190Z,99904.09
2024-03-06T23:41:47.956Z,99898.25
2024-03-06T23:46:39.633Z,99904.97
2024-03-06T23:51:31.300Z,99894.59
2024-03-06T23:56:23.002Z,99892.91
